createdAt,value
2022-08-05T00:01:35.466Z,2.35
2022-08-05T00:04:08.389Z,1.80
2022-08-05T00:06:37.203Z,2.00
2022-08-05T00:09:12.900Z,1.60
2022-08-05T00:11:48.379Z,1.42
2022-08-05T00:14:18.407Z,1.52
2022-08-05T00:16:53.694Z,1.60
2022-08-05T00:19:23.220Z,1.40
2022-08-05T00:21:52.173Z,1.40
2022-08-05T00:24:24.768Z,1.20
2022-08-05T00:27:00.703Z,1.40
2022-08-05T00:29:37.809Z,1.50
2022-08-05T00:32:13.246Z,1.48
2022-08-05T00:35:04.788Z,1.52
2022-08-05T00:37:35.887Z,1.50
2022-08-05T00:40:28.069Z,1.30
2022-08-05T00:43:02.739Z,1.38
2022-08-05T00:45:38.735Z,1.95
2022-08-05T00:48:16.929Z,1.50
2022-08-05T00:50:49.834Z,1.70
2022-08-05T00:53:59.859Z,1.40
2022-08-05T00:56:13.157Z,1.98
2022-08-05T00:58:45.948Z,2.13
2022-08-05T01:01:42.904Z,1.83
2022-08-05T01:04:13.929Z,1.92
2022-08-05T01:06:43.732Z,1.50
2022-08-05T01:09:22.097Z,1.67
2022-08-05T01:11:53.837Z,1.33
2022-08-05T01:14:40.734Z,1.95
2022-08-05T01:17:39.936Z,2.17
2022-08-05T01:20:36.896Z,1.40
2022-08-05T01:23:22.744Z,2.08
2022-08-05T01:26:10.496Z,1.50
2022-08-05T01:28:46.930Z,1.58
2022-08-05T01:31:27.739Z,1.42
2022-08-05T01:34:08.485Z,1.52
2022-08-05T01:36:46.815Z,1.50
2022-08-05T01:39:45.693Z,1.30
2022-08-05T01:42:12.532Z,1.55
2022-08-05T01:44:45.768Z,1.92
2022-08-05T01:47:25.434Z,1.33
2022-08-05T01:50:18.493Z,1.58
2022-08-05T01:53:10.425Z,1.63
2022-08-05T01:55:43.156Z,1.35
2022-08-05T01:58:15.667Z,1.40
2022-08-05T02:00:50.635Z,2.03
2022-08-05T02:03:37.885Z,1.50
2022-08-05T02:06:33.844Z,1.55
2022-08-05T02:08:59.241Z,1.65
2022-08-05T02:14:12.719Z,1.80
2022-08-05T02:17:05.393Z,1.40
2022-08-05T02:19:47.452Z,1.40
2022-08-05T02:22:25.908Z,1.50
2022-08-05T02:25:21.707Z,1.45
2022-08-05T02:27:58.405Z,1.55
2022-08-05T02:30:35.570Z,1.52
2022-08-05T02:33:05.136Z,1.70
2022-08-05T02:35:44.912Z,1.42
2022-08-05T02:41:14.631Z,1.50
2022-08-05T02:44:02.801Z,1.38
2022-08-05T02:46:43.964Z,1.90
2022-08-05T02:52:29.693Z,1.83
2022-08-05T02:55:01.891Z,1.42
2022-08-05T02:58:12.114Z,1.60
2022-08-05T03:00:25.421Z,1.48
2022-08-05T03:02:58.009Z,1.60
2022-08-05T03:06:56.473Z,1.90
2022-08-05T03:08:17.073Z,1.70
2022-08-05T03:11:52.999Z,2.03
2022-08-05T03:13:52.209Z,1.50
2022-08-05T03:16:31.573Z,1.65
2022-08-05T03:19:01.439Z,1.75
2022-08-05T03:21:41.427Z,1.60
2022-08-05T03:24:29.269Z,1.80
2022-08-05T03:27:00.071Z,2.40
2022-08-05T03:29:45.651Z,2.25
2022-08-05T03:32:19.545Z,2.67
2022-08-05T03:34:50.573Z,2.95
2022-08-05T03:37:21.201Z,2.72
2022-08-05T03:40:01.773Z,2.40
2022-08-05T03:42:41.589Z,2.38
2022-08-05T03:45:22.409Z,2.72
2022-08-05T03:47:51.986Z,2.78
2022-08-05T03:50:33.638Z,2.63
2022-08-05T03:55:52.579Z,2.60
2022-08-05T03:56:17.084Z,2.30
2022-08-05T03:58:48.685Z,2.60
2022-08-05T04:01:22.834Z,3.00
2022-08-05T04:04:09.211Z,2.55
2022-08-05T04:06:47.484Z,2.63
2022-08-05T04:09:20.216Z,2.50
2022-08-05T04:11:52.408Z,3.00
2022-08-05T04:14:29.891Z,2.70
2022-08-05T04:17:00.526Z,2.08
2022-08-05T04:19:29.792Z,2.10
2022-08-05T04:22:08.640Z,2.20
2022-08-05T04:24:52.485Z,2.28
2022-08-05T04:27:41.673Z,2.13
2022-08-05T04:30:10.796Z,2.40
2022-08-05T04:32:39.307Z,2.08
2022-08-05T04:35:17.537Z,1.90
2022-08-05T04:38:01.472Z,2.08
2022-08-05T04:40:44.456Z,1.92
2022-08-05T04:43:16.861Z,2.08
2022-08-05T04:45:49.015Z,2.70
2022-08-05T04:48:27.835Z,1.90
2022-08-05T04:51:03.324Z,2.75
2022-08-05T04:53:39.052Z,2.20
2022-08-05T04:56:33.467Z,2.30
2022-08-05T04:58:56.992Z,2.20
2022-08-05T05:01:33.470Z,3.58
2022-08-05T05:04:13.792Z,2.60
2022-08-05T05:06:44.729Z,2.38
2022-08-05T05:09:18.461Z,2.10
2022-08-05T05:11:54.490Z,1.92
2022-08-05T05:14:27.799Z,2.20
2022-08-05T05:17:00.747Z,2.50
2022-08-05T05:19:36.257Z,2.30
2022-08-05T05:22:24.411Z,2.20
2022-08-05T05:24:58.147Z,2.03
2022-08-05T05:27:44.655Z,2.33
2022-08-05T05:30:29.032Z,2.05
2022-08-05T05:33:08.778Z,3.03
2022-08-05T05:35:47.395Z,2.33
2022-08-05T05:38:22.441Z,2.88
2022-08-05T05:40:57.030Z,2.22
2022-08-05T05:43:54.225Z,3.85
2022-08-05T05:46:17.719Z,2.45
2022-08-05T05:48:48.694Z,2.70
2022-08-05T05:51:25.760Z,2.70
2022-08-05T05:54:00.184Z,2.47
2022-08-05T05:56:32.453Z,2.05
2022-08-05T05:59:07.790Z,2.50
2022-08-05T06:01:39.465Z,2.80
2022-08-05T06:04:12.153Z,2.40
2022-08-05T06:06:47.304Z,2.28
2022-08-05T06:09:35.382Z,2.17
2022-08-05T06:12:06.830Z,2.65
2022-08-05T06:14:40.119Z,2.78
2022-08-05T06:19:59.715Z,1.98
2022-08-05T06:22:33.598Z,1.95
2022-08-05T06:25:25.012Z,1.70
2022-08-05T06:28:10.782Z,1.70
2022-08-05T06:30:41.817Z,1.88
2022-08-05T06:33:10.772Z,1.95
2022-08-05T06:36:07.228Z,1.80
2022-08-05T06:38:35.686Z,1.77
2022-08-05T06:41:07.774Z,1.60
2022-08-05T06:43:58.876Z,1.70
2022-08-05T06:46:30.069Z,1.67
2022-08-05T06:49:01.232Z,1.83
2022-08-05T06:51:31.490Z,1.08
2022-08-05T06:54:02.437Z,1.27
2022-08-05T06:56:34.330Z,1.48
2022-08-05T06:59:09.575Z,1.83
2022-08-05T07:01:40.513Z,1.17
2022-08-05T07:04:10.202Z,1.10
2022-08-05T07:06:38.612Z,1.10
2022-08-05T07:09:06.917Z,1.00
2022-08-05T07:11:37.053Z,0.90
2022-08-05T07:14:29.312Z,0.77
2022-08-05T07:17:59.947Z,0.90
2022-08-05T07:22:41.943Z,1.08
2022-08-05T07:25:23.803Z,0.90
2022-08-05T07:28:07.332Z,1.10
2022-08-05T07:30:39.775Z,1.35
2022-08-05T07:33:16.455Z,0.98
2022-08-05T07:36:03.568Z,1.10
2022-08-05T07:38:43.328Z,1.20
2022-08-05T07:42:12.846Z,0.93
2022-08-05T07:44:18.725Z,1.00
2022-08-05T07:46:49.515Z,1.15
2022-08-05T07:49:19.713Z,0.80
2022-08-05T07:51:54.433Z,1.00
2022-08-05T07:54:31.065Z,1.05
2022-08-05T07:57:17.575Z,0.77
2022-08-05T07:59:52.082Z,0.90
2022-08-05T08:02:26.359Z,1.30
2022-08-05T08:04:56.505Z,0.70
2022-08-05T08:07:25.132Z,0.70
2022-08-05T08:09:58.088Z,0.90
2022-08-05T08:12:48.393Z,1.05
2022-08-05T08:15:17.666Z,0.90
2022-08-05T08:18:09.903Z,1.25
2022-08-05T08:21:03.333Z,0.88
2022-08-05T08:24:02.356Z,0.77
2022-08-05T08:26:26.818Z,0.80
2022-08-05T08:29:21.796Z,0.80
2022-08-05T08:31:48.893Z,0.90
2022-08-05T08:34:29.871Z,0.95
2022-08-05T08:37:05.251Z,1.02
2022-08-05T08:39:37.144Z,0.80
2022-08-05T08:42:22.484Z,0.68
2022-08-05T08:45:22.360Z,1.00
2022-08-05T08:48:07.396Z,1.00
2022-08-05T08:53:37.055Z,0.90
2022-08-05T08:56:06.672Z,0.80
2022-08-05T08:58:43.801Z,0.80
2022-08-05T09:01:18.966Z,0.60
2022-08-05T09:03:57.415Z,1.00
2022-08-05T09:06:29.844Z,1.13
2022-08-05T09:09:01.127Z,0.80
2022-08-05T09:11:51.005Z,0.90
2022-08-05T09:14:58.375Z,0.90
2022-08-05T09:17:40.120Z,0.98
2022-08-05T09:20:02.492Z,1.38
2022-08-05T09:23:19.656Z,0.80
2022-08-05T09:26:03.275Z,0.88
2022-08-05T09:28:36.322Z,0.90
2022-08-05T09:31:43.975Z,0.90
2022-08-05T09:33:59.351Z,1.25
2022-08-05T09:36:54.493Z,1.15
2022-08-05T09:39:42.031Z,1.20
2022-08-05T09:42:23.048Z,0.70
2022-08-05T09:44:56.630Z,1.10
2022-08-05T09:47:36.450Z,1.00
2022-08-05T09:50:43.585Z,0.70
2022-08-05T09:53:08.872Z,0.70
2022-08-05T09:55:58.716Z,0.65
2022-08-05T09:58:29.412Z,0.70
2022-08-05T10:01:13.352Z,0.80
2022-08-05T10:03:58.804Z,0.88
2022-08-05T10:06:28.398Z,0.60
2022-08-05T10:09:27.693Z,0.82
2022-08-05T10:12:31.047Z,0.93
2022-08-05T10:15:27.020Z,0.70
2022-08-05T10:18:08.691Z,0.60
2022-08-05T10:20:48.564Z,0.50
2022-08-05T10:23:34.368Z,0.50
2022-08-05T10:26:51.686Z,0.90
2022-08-05T10:29:01.154Z,0.50
2022-08-05T10:32:54.349Z,0.68
2022-08-05T10:34:19.578Z,0.30
2022-08-05T10:36:54.774Z,0.50
2022-08-05T10:40:03.813Z,0.77
2022-08-05T10:42:32.593Z,0.70
2022-08-05T10:45:21.186Z,0.70
2022-08-05T10:48:30.176Z,0.50
2022-08-05T10:51:03.368Z,0.68
2022-08-05T10:58:54.684Z,0.50
2022-08-05T11:02:04.820Z,0.40
2022-08-05T11:04:26.158Z,0.40
2022-08-05T11:06:58.105Z,0.40
2022-08-05T11:10:09.762Z,0.60
2022-08-05T11:12:42.124Z,0.40
2022-08-05T11:15:59.434Z,0.50
2022-08-05T11:18:29.739Z,0.38
2022-08-05T11:20:59.079Z,0.60
2022-08-05T11:24:05.287Z,0.50
2022-08-05T11:26:40.452Z,0.55
2022-08-05T11:29:35.664Z,0.40
2022-08-05T11:32:29.263Z,0.38
2022-08-05T11:34:57.991Z,0.63
2022-08-05T11:38:36.592Z,0.60
2022-08-05T11:41:01.287Z,0.43
2022-08-05T11:44:04.645Z,0.45
2022-08-05T11:46:36.050Z,0.40
2022-08-05T11:49:07.922Z,0.70
2022-08-05T11:51:44.707Z,0.70
2022-08-05T11:54:33.471Z,0.50
2022-08-05T11:57:08.047Z,0.50
2022-08-05T11:59:50.309Z,0.57
2022-08-05T12:02:31.154Z,0.52
2022-08-05T12:05:07.101Z,0.50
2022-08-05T12:08:03.468Z,0.40
2022-08-05T12:10:43.770Z,0.50
2022-08-05T12:13:47.509Z,0.30
2022-08-05T12:16:14.634Z,0.90
2022-08-05T12:18:49.013Z,0.50
2022-08-05T12:21:26.606Z,0.52
2022-08-05T12:24:00.103Z,0.95
2022-08-05T12:26:34.410Z,0.70
2022-08-05T12:29:05.910Z,0.40
2022-08-05T12:31:44.933Z,0.50
2022-08-05T12:34:37.001Z,0.38
2022-08-05T12:37:17.231Z,0.70
2022-08-05T12:40:03.636Z,0.30
2022-08-05T12:42:40.258Z,0.77
2022-08-05T12:45:10.784Z,0.63
2022-08-05T12:47:43.589Z,0.50
2022-08-05T12:50:27.870Z,0.50
2022-08-05T12:53:02.156Z,0.50
2022-08-05T12:55:32.826Z,0.47
2022-08-05T12:58:48.441Z,0.80
2022-08-05T13:02:03.767Z,0.43
2022-08-05T13:03:42.273Z,0.80
2022-08-05T13:06:18.205Z,0.50
2022-08-05T13:08:52.099Z,0.50
2022-08-05T13:12:01.716Z,0.73
2022-08-05T13:14:24.971Z,0.40
2022-08-05T13:17:21.426Z,0.70
2022-08-05T13:20:04.015Z,0.57
2022-08-05T13:22:37.912Z,0.50
2022-08-05T13:25:19.133Z,0.60
2022-08-05T13:27:52.645Z,0.70
2022-08-05T13:30:34.924Z,0.50
2022-08-05T13:33:05.133Z,0.60
2022-08-05T13:35:47.578Z,0.50
2022-08-05T13:38:30.373Z,0.60
2022-08-05T13:41:02.730Z,0.70
2022-08-05T13:43:43.354Z,0.60
2022-08-05T13:46:16.188Z,0.50
2022-08-05T13:48:57.091Z,0.50
2022-08-05T13:51:36.571Z,0.75
2022-08-05T13:54:13.666Z,0.70
2022-08-05T13:56:50.833Z,0.55
2022-08-05T13:59:24.318Z,0.70
2022-08-05T14:01:58.261Z,0.50
2022-08-05T14:04:51.045Z,0.40
2022-08-05T14:07:26.218Z,0.45
2022-08-05T14:10:30.719Z,0.60
2022-08-05T14:12:59.819Z,0.70
2022-08-05T14:16:05.218Z,0.50
2022-08-05T14:18:18.598Z,0.85
2022-08-05T14:20:54.989Z,0.80
2022-08-05T14:23:25.841Z,3.10
2022-08-05T14:25:57.915Z,1.30
2022-08-05T14:28:29.469Z,1.23
2022-08-05T14:30:59.700Z,1.52
2022-08-05T14:33:56.362Z,1.17
2022-08-05T14:36:21.412Z,1.33
2022-08-05T14:38:51.501Z,1.13
2022-08-05T14:41:21.085Z,1.23
2022-08-05T14:44:02.461Z,0.82
2022-08-05T14:46:38.011Z,1.23
2022-08-05T14:49:08.061Z,0.90
2022-08-05T14:51:38.305Z,1.08
2022-08-05T14:54:27.919Z,0.73
2022-08-05T14:56:56.266Z,0.70
2022-08-05T14:59:25.155Z,0.90
2022-08-05T15:01:58.456Z,0.65
2022-08-05T15:04:29.133Z,0.70
2022-08-05T15:06:57.790Z,0.60
2022-08-05T15:09:51.330Z,0.57
2022-08-05T15:12:16.963Z,0.68
2022-08-05T15:14:50.163Z,0.60
2022-08-05T15:17:47.709Z,0.52
2022-08-05T15:20:17.022Z,0.60
2022-08-05T15:22:54.267Z,0.63
2022-08-05T15:25:51.484Z,0.70
2022-08-05T15:28:14.724Z,1.48
2022-08-05T15:30:46.757Z,0.70
2022-08-05T15:34:04.111Z,0.73
2022-08-05T15:36:17.389Z,0.73
2022-08-05T15:40:59.096Z,0.60
2022-08-05T15:41:57.267Z,0.68
2022-08-05T15:44:30.302Z,0.70
2022-08-05T15:47:01.824Z,0.50
2022-08-05T15:49:43.266Z,0.68
2022-08-05T15:52:51.851Z,0.68
2022-08-05T15:55:16.064Z,0.47
2022-08-05T15:57:44.928Z,0.80
2022-08-05T16:00:16.634Z,1.00
2022-08-05T16:02:45.416Z,0.70
2022-08-05T16:05:15.548Z,0.65
2022-08-05T16:07:46.432Z,0.60
2022-08-05T16:10:15.226Z,0.80
2022-08-05T16:12:43.517Z,0.65
2022-08-05T16:15:18.386Z,0.40
2022-08-05T16:17:58.078Z,0.70
2022-08-05T16:20:27.882Z,0.60
2022-08-05T16:22:57.475Z,0.80
2022-08-05T16:25:32.347Z,0.40
2022-08-05T16:28:09.535Z,0.50
2022-08-05T16:30:38.681Z,0.50
2022-08-05T16:33:07.110Z,0.50
2022-08-05T16:35:42.215Z,0.50
2022-08-05T16:38:18.420Z,0.52
2022-08-05T16:41:00.291Z,0.50
2022-08-05T16:43:31.720Z,0.50
2022-08-05T16:46:03.703Z,0.82
2022-08-05T16:48:38.479Z,0.50
2022-08-05T16:51:08.918Z,0.50
2022-08-05T16:54:04.852Z,0.50
2022-08-05T16:56:30.437Z,0.40
2022-08-05T16:59:08.185Z,1.27
2022-08-05T17:01:52.921Z,0.60
2022-08-05T17:04:28.482Z,0.60
2022-08-05T17:07:01.266Z,0.45
2022-08-05T17:09:30.392Z,0.55
2022-08-05T17:12:07.287Z,0.60
2022-08-05T17:14:37.208Z,1.45
2022-08-05T17:17:09.305Z,0.55
2022-08-05T17:19:45.649Z,0.65
2022-08-05T17:22:24.754Z,0.43
2022-08-05T17:24:57.640Z,1.00
2022-08-05T17:27:34.121Z,0.82
2022-08-05T17:30:18.685Z,0.60
2022-08-05T17:32:56.047Z,0.60
2022-08-05T17:35:24.700Z,0.60
2022-08-05T17:37:53.025Z,0.55
2022-08-05T17:40:29.346Z,0.40
2022-08-05T17:43:00.847Z,0.40
2022-08-05T17:45:29.605Z,0.45
2022-08-05T17:48:08.110Z,0.60
2022-08-05T17:50:36.720Z,0.80
2022-08-05T17:53:08.437Z,0.45
2022-08-05T17:55:39.994Z,0.50
2022-08-05T17:58:12.461Z,0.50
2022-08-05T18:00:47.098Z,0.70
2022-08-05T18:03:55.994Z,0.43
2022-08-05T18:06:12.118Z,0.60
2022-08-05T18:08:46.233Z,0.70
2022-08-05T18:11:24.419Z,0.40
2022-08-05T18:16:46.730Z,0.60
2022-08-05T18:19:22.837Z,0.50
2022-08-05T18:22:08.447Z,0.70
2022-08-05T18:24:40.287Z,0.70
2022-08-05T18:27:12.678Z,0.70
2022-08-05T18:29:53.477Z,0.57
2022-08-05T18:32:28.055Z,0.68
2022-08-05T18:34:59.159Z,0.77
2022-08-05T18:37:34.804Z,0.87
2022-08-05T18:40:34.636Z,0.55
2022-08-05T18:43:03.770Z,0.52
2022-08-05T18:45:41.215Z,0.83
2022-08-05T18:48:11.165Z,0.90
2022-08-05T18:51:01.698Z,0.77
2022-08-05T18:53:50.530Z,0.70
2022-08-05T18:56:21.932Z,0.90
2022-08-05T18:59:00.707Z,0.90
2022-08-05T19:01:33.199Z,0.65
2022-08-05T19:04:23.907Z,0.60
2022-08-05T19:06:53.632Z,0.98
2022-08-05T19:09:22.338Z,0.60
2022-08-05T19:12:00.346Z,0.80
2022-08-05T19:14:59.610Z,1.20
2022-08-05T19:17:19.367Z,0.52
2022-08-05T19:19:48.530Z,0.90
2022-08-05T19:22:17.734Z,0.80
2022-08-05T19:24:54.697Z,0.55
2022-08-05T19:27:30.499Z,0.55
2022-08-05T19:29:59.169Z,0.75
2022-08-05T19:32:27.921Z,1.15
2022-08-05T19:34:57.935Z,1.00
2022-08-05T19:37:30.084Z,0.90
2022-08-05T19:40:15.419Z,0.70
2022-08-05T19:43:05.558Z,0.80
2022-08-05T19:45:33.136Z,0.85
2022-08-05T19:48:06.252Z,0.68
2022-08-05T19:50:35.226Z,0.93
2022-08-05T19:53:09.261Z,0.70
2022-08-05T19:56:19.234Z,0.80
2022-08-05T19:58:29.472Z,0.60
2022-08-05T20:00:58.978Z,1.27
2022-08-05T20:03:27.471Z,0.55
2022-08-05T20:06:14.815Z,0.60
2022-08-05T20:08:47.218Z,0.82
2022-08-05T20:11:17.915Z,0.55
2022-08-05T20:13:58.291Z,0.70
2022-08-05T20:16:27.521Z,0.50
2022-08-05T20:18:56.046Z,0.80
2022-08-05T20:21:25.503Z,0.70
2022-08-05T20:23:53.899Z,0.60
2022-08-05T20:26:27.619Z,0.70
2022-08-05T20:29:00.545Z,0.70
2022-08-05T20:31:42.817Z,0.77
2022-08-05T20:34:17.826Z,0.57
2022-08-05T20:36:46.310Z,0.70
2022-08-05T20:39:16.580Z,0.70
2022-08-05T20:41:47.869Z,0.50
2022-08-05T20:44:30.308Z,0.80
2022-08-05T20:47:01.121Z,0.60
2022-08-05T20:49:29.666Z,0.70
2022-08-05T20:52:01.840Z,0.82
2022-08-05T20:54:42.916Z,0.52
2022-08-05T20:57:24.665Z,0.50
2022-08-05T21:00:20.945Z,0.90
2022-08-05T21:05:48.183Z,0.93
2022-08-05T21:08:18.543Z,0.85
2022-08-05T21:10:48.896Z,1.00
2022-08-05T21:13:46.962Z,0.70
2022-08-05T21:16:07.484Z,0.90
2022-08-05T21:18:36.010Z,0.88
2022-08-05T21:21:04.441Z,0.90
2022-08-05T21:23:37.204Z,1.05
2022-08-05T21:26:12.188Z,0.75
2022-08-05T21:28:50.528Z,0.77
2022-08-05T21:31:19.897Z,0.70
2022-08-05T21:33:49.816Z,0.80
2022-08-05T21:36:19.101Z,1.08
2022-08-05T21:38:56.688Z,1.08
2022-08-05T21:41:26.146Z,0.98
2022-08-05T21:44:04.462Z,1.13
2022-08-05T21:46:34.355Z,1.23
2022-08-05T21:49:07.068Z,1.10
2022-08-05T21:52:21.871Z,0.93
2022-08-05T21:54:30.712Z,1.00
2022-08-05T21:57:31.365Z,1.20
2022-08-05T22:00:03.277Z,0.95
2022-08-05T22:02:44.145Z,1.17
2022-08-05T22:05:14.197Z,0.90
2022-08-05T22:07:59.531Z,1.02
2022-08-05T22:10:31.024Z,0.90
2022-08-05T22:13:08.623Z,0.90
2022-08-05T22:16:01.170Z,1.25
2022-08-05T22:18:33.261Z,1.25
2022-08-05T22:21:04.710Z,0.93
2022-08-05T22:24:03.171Z,1.90
2022-08-05T22:26:55.828Z,1.30
2022-08-05T22:29:26.647Z,1.30
2022-08-05T22:32:02.665Z,1.17
2022-08-05T22:34:34.666Z,1.00
2022-08-05T22:37:04.960Z,1.23
2022-08-05T22:39:34.747Z,1.17
2022-08-05T22:42:11.316Z,0.90
2022-08-05T22:44:47.053Z,0.98
2022-08-05T22:47:29.667Z,1.10
2022-08-05T22:50:20.046Z,1.20
2022-08-05T22:52:51.429Z,1.30
2022-08-05T22:55:22.918Z,1.40
2022-08-05T22:57:53.342Z,1.08
2022-08-05T23:00:23.122Z,1.00
2022-08-05T23:02:53.419Z,1.35
2022-08-05T23:05:22.725Z,1.10
2022-08-05T23:07:51.912Z,1.45
2022-08-05T23:10:23.910Z,0.80
2022-08-05T23:12:55.147Z,1.25
2022-08-05T23:15:34.815Z,1.45
2022-08-05T23:18:05.841Z,0.98
2022-08-05T23:20:40.105Z,1.20
2022-08-05T23:23:11.854Z,1.00
2022-08-05T23:25:51.409Z,1.13
2022-08-05T23:28:27.628Z,1.00
2022-08-05T23:31:02.220Z,1.08
2022-08-05T23:34:05.583Z,0.80
2022-08-05T23:36:40.225Z,1.10
2022-08-05T23:39:17.640Z,1.25
2022-08-05T23:42:00.742Z,1.35
2022-08-05T23:44:31.490Z,1.10
2022-08-05T23:47:02.312Z,1.10
2022-08-05T23:49:46.447Z,0.90
2022-08-05T23:52:27.496Z,0.90
2022-08-05T23:54:59.059Z,0.90
2022-08-05T23:57:28.254Z,1.23
